Aviation Digital Data Service (ADDS)

Output produced by METARs form (2210 UTC 24 March 2019)
found at http://www.aviationweather.gov/metar/data/
 
LJLJ 242200Z 30007KT CAVOK 05/03 Q1016 NOSIG
TAF LJLJ 242000Z 2421/2521 30003KT CAVOK 
     BECMG 2507/2509 11004KT SCT040 BKN090 
     PROB40 
     TEMPO 2508/2515 -RA BKN040 OVC090 
     BECMG 2514/2516 09008KT 7000 RA FEW005 BKN035 OVC050
       
LJMB 242200Z AUTO VRB01KT 9999 NSC 10/04 Q1016
TAF LJMB 242000Z 2421/2521 35003KT CAVOK 
     BECMG 2504/2507 FEW035 BKN055 
     TEMPO 2507/2512 36005KT -RA BKN035 OVC050 
     BECMG 2512/2515 02010KT 7000 RA FEW005 BKN035 OVC050 
     BECMG 2518/2520 9999 NSW FEW030 OVC110
       
LJPZ 242200Z AUTO 13004KT 060V180 9999 NCD 08/02 Q1017
TAF LJPZ 242000Z 2421/2506 12005KT CAVOK